Time;durP1;ratioP1;P1;durP2;ratioP2;P2;SDS_P1;SDS_P2;PMS_P1;PMS_P2;Temp;Humidity;BMP_temperature;BMP_pressure;BME280_temperature;BME280_humidity;BME280_pressure;Samples;Min_cycle;Max_cycle;Signal;HPM_P1;HPM_P2
2022/07/27 00:03:47;;;;;;;;;;;;;;;24.48;45.29;100057.72;20703395;28;98677;-71
2022/07/27 00:13:48;;;;;;;;;;;;;;;24.32;45.28;100063.66;20697225;28;97853;-71
2022/07/27 00:23:48;;;;;;;;;;;;;;;24.25;45.52;100058.13;20696795;28;97635;-72
2022/07/27 00:33:49;;;;;;;;;;;;;;;24.21;45.76;100052.28;20653997;28;98138;-72
2022/07/27 00:43:53;;;;;;;;;;;;;;;24.17;45.77;100061.50;20689348;28;97953;-72
2022/07/27 00:53:53;;;;;;;;;;;;;;;24.10;46.32;100061.25;20680992;28;98739;-72
2022/07/27 01:03:53;;;;;;;;;;;;;;;24.14;46.01;100064.44;20680504;28;97825;-70
2022/07/27 01:13:54;;;;;;;;;;;;;;;24.22;45.74;100066.34;20678076;28;98489;-72
2022/07/27 01:23:54;;;;;;;;;;;;;;;24.20;45.65;100060.38;20686807;28;100446;-71
2022/07/27 01:33:55;;;;;;;;;;;;;;;24.03;45.79;100077.84;20672222;28;98090;-71
2022/07/27 01:43:56;;;;;;;;;;;;;;;23.98;46.06;100071.16;20678894;28;100800;-72
2022/07/27 01:53:56;;;;;;;;;;;;;;;23.87;46.17;100071.31;20689348;28;98731;-71
2022/07/27 02:03:57;;;;;;;;;;;;;;;23.84;46.50;100066.34;20696515;28;100005;-71
2022/07/27 02:13:58;;;;;;;;;;;;;;;23.75;46.34;100056.59;20681005;28;98704;-72
2022/07/27 02:23:58;;;;;;;;;;;;;;;23.63;46.85;100063.88;20663689;28;97624;-72
2022/07/27 02:33:58;;;;;;;;;;;;;;;23.59;47.19;100073.06;20670684;28;98346;-72
2022/07/27 02:43:59;;;;;;;;;;;;;;;23.54;47.21;100080.59;20666797;28;101585;-72
2022/07/27 02:53:59;;;;;;;;;;;;;;;23.48;47.14;100079.34;20670720;28;99300;-72
2022/07/27 03:04:00;;;;;;;;;;;;;;;23.26;47.70;100088.41;20698146;28;98568;-70
2022/07/27 03:14:01;;;;;;;;;;;;;;;23.17;47.97;100093.56;20675886;28;98787;-71
2022/07/27 03:24:02;;;;;;;;;;;;;;;23.16;47.94;100086.59;20668242;28;97975;-73
2022/07/27 03:34:02;;;;;;;;;;;;;;;23.10;48.01;100075.72;20680459;28;98478;-72
2022/07/27 03:44:03;;;;;;;;;;;;;;;23.08;48.09;100086.41;20692736;28;98707;-73
2022/07/27 03:54:03;;;;;;;;;;;;;;;23.01;48.21;100093.25;20686336;28;99173;-71
2022/07/27 04:04:05;;;;;;;;;;;;;;;23.01;47.66;100085.34;20684792;28;97908;-76
2022/07/27 04:14:05;;;;;;;;;;;;;;;22.65;48.18;100079.72;20692652;28;101279;-72
2022/07/27 04:24:05;;;;;;;;;;;;;;;22.58;49.00;100083.88;20667487;28;97568;-72
2022/07/27 04:34:06;;;;;;;;;;;;;;;22.60;48.85;100097.78;20692280;28;97926;-72
2022/07/27 04:44:07;;;;;;;;;;;;;;;22.77;48.29;100105.00;20696637;28;98437;-70
2022/07/27 04:54:07;;;;;;;;;;;;;;;22.99;47.45;100096.00;20681927;28;99021;-71
2022/07/27 05:04:10;;;;;;;;;;;;;;;23.18;47.29;100111.06;20679478;28;101002;-71
2022/07/27 05:14:11;;;;;;;;;;;;;;;23.26;47.38;100106.91;20694320;28;99191;-75
2022/07/27 05:24:11;;;;;;;;;;;;;;;23.38;46.90;100121.63;20704850;28;98725;-75
2022/07/27 05:34:11;;;;;;;;;;;;;;;23.43;46.72;100129.97;20716289;28;99457;-75
2022/07/27 05:44:12;;;;;;;;;;;;;;;23.59;45.90;100139.16;20715516;28;99572;-75
2022/07/27 05:54:12;;;;;;;;;;;;;;;23.70;44.79;100146.09;20690706;28;98998;-74
2022/07/27 06:04:12;;;;;;;;;;;;;;;23.83;44.55;100158.03;20689096;28;97869;-74
2022/07/27 06:14:13;;;;;;;;;;;;;;;23.96;43.98;100165.69;20691001;27;97958;-75
2022/07/27 06:24:14;;;;;;;;;;;;;;;24.09;43.16;100178.59;20699366;28;98795;-76
2022/07/27 06:34:16;;;;;;;;;;;;;;;24.18;42.13;100178.72;20691852;28;97961;-74
2022/07/27 06:44:16;;;;;;;;;;;;;;;24.27;41.75;100176.03;20676809;28;100939;-73
2022/07/27 06:54:16;;;;;;;;;;;;;;;24.36;41.01;100173.50;20670609;28;101546;-74
2022/07/27 07:04:17;;;;;;;;;;;;;;;24.45;41.39;100173.47;20700854;28;97986;-75
2022/07/27 07:14:17;;;;;;;;;;;;;;;24.53;40.91;100166.63;20699285;28;99862;-74
2022/07/27 07:24:18;;;;;;;;;;;;;;;24.62;41.28;100163.09;20703504;28;99030;-74
2022/07/27 07:34:18;;;;;;;;;;;;;;;24.70;41.16;100142.03;20700643;28;100014;-74
2022/07/27 07:44:20;;;;;;;;;;;;;;;24.78;40.72;100147.44;20710297;28;98003;-72
2022/07/27 07:54:20;;;;;;;;;;;;;;;24.85;40.26;100129.13;20716104;28;101033;-74
2022/07/27 08:04:20;;;;;;;;;;;;;;;24.91;40.35;100133.84;20695627;28;97484;-74
2022/07/27 08:14:22;;;;;;;;;;;;;;;25.00;40.60;100123.31;20712676;28;101056;-74
2022/07/27 08:24:22;;;;;;;;;;;;;;;25.09;40.86;100125.88;20714225;28;98439;-75
2022/07/27 08:34:22;;;;;;;;;;;;;;;25.14;38.60;100114.84;20720984;28;98300;-74
2022/07/27 08:44:23;;;;;;;;;;;;;;;25.19;38.69;100109.91;20710202;28;98783;-74
2022/07/27 08:54:24;;;;;;;;;;;;;;;25.27;38.27;100109.16;20725461;28;100870;-74
2022/07/27 09:04:25;;;;;;;;;;;;;;;25.33;37.74;100097.94;20731803;28;97445;-73
2022/07/27 09:14:29;;;;;;;;;;;;;;;25.39;37.35;100092.06;20730966;28;98107;-74
2022/07/27 09:24:29;;;;;;;;;;;;;;;25.46;38.38;100092.25;20730897;28;98097;-73
2022/07/27 09:34:32;;;;;;;;;;;;;;;25.53;38.29;100095.97;20714905;28;98086;-72
2022/07/27 09:44:37;;;;;;;;;;;;;;;25.59;38.37;100091.06;20726238;28;100820;-72
2022/07/27 09:54:42;;;;;;;;;;;;;;;25.65;37.17;100093.06;20721158;28;100322;-74
2022/07/27 10:04:42;;;;;;;;;;;;;;;25.71;37.13;100084.50;20697892;28;99120;-73
2022/07/27 10:14:43;;;;;;;;;;;;;;;25.77;37.40;100083.03;20724613;28;98336;-72
2022/07/27 10:24:43;;;;;;;;;;;;;;;25.82;36.94;100080.75;20719222;28;101574;-73
2022/07/27 10:34:43;;;;;;;;;;;;;;;25.88;36.37;100075.63;20708465;28;98962;-74
2022/07/27 10:44:55;;;;;;;;;;;;;;;25.95;35.61;100078.50;20718685;28;97997;-73
2022/07/27 10:54:56;;;;;;;;;;;;;;;26.04;33.58;100053.66;20707460;28;98547;-74
2022/07/27 11:04:57;;;;;;;;;;;;;;;26.12;35.27;100057.38;20689457;28;101010;-73
2022/07/27 11:14:57;;;;;;;;;;;;;;;26.19;35.10;100048.59;20706096;28;99466;-73
2022/07/27 11:24:58;;;;;;;;;;;;;;;26.29;35.02;100042.34;20717569;28;98427;-73
2022/07/27 11:34:58;;;;;;;;;;;;;;;26.35;33.67;100034.59;20716062;28;100905;-74
2022/07/27 11:45:00;;;;;;;;;;;;;;;26.45;32.88;100036.25;20695142;28;98162;-73
2022/07/27 11:55:00;;;;;;;;;;;;;;;26.54;32.45;100027.31;20697707;28;98576;-74
2022/07/27 12:05:00;;;;;;;;;;;;;;;26.61;31.51;100022.16;20681108;28;98486;-73
2022/07/27 12:15:02;;;;;;;;;;;;;;;26.68;31.62;100012.56;20708816;28;98588;-74
2022/07/27 12:25:06;;;;;;;;;;;;;;;26.77;31.83;99995.66;20723010;28;98342;-73
2022/07/27 12:35:24;;;;;;;;;;;;;;;26.86;31.85;99990.38;20720803;28;97541;-75
2022/07/27 12:45:28;;;;;;;;;;;;;;;26.94;31.10;99980.56;20726797;28;97827;-74
2022/07/27 12:55:28;;;;;;;;;;;;;;;27.00;31.05;99968.41;20708403;28;97874;-74
2022/07/27 13:05:29;;;;;;;;;;;;;;;27.08;30.71;99964.94;20718981;28;101536;-75
2022/07/27 13:15:30;;;;;;;;;;;;;;;27.15;31.04;99950.78;20728882;28;97815;-74
2022/07/27 13:25:31;;;;;;;;;;;;;;;27.23;31.08;99951.78;20717142;28;98154;-74
2022/07/27 13:35:31;;;;;;;;;;;;;;;27.28;31.50;99939.66;20721499;28;96957;-73
2022/07/27 13:45:32;;;;;;;;;;;;;;;27.32;31.16;99926.84;20723520;28;101614;-73
2022/07/27 13:55:32;;;;;;;;;;;;;;;27.39;30.69;99921.66;20717886;28;99355;-73
2022/07/27 14:05:33;;;;;;;;;;;;;;;27.45;31.05;99908.56;20709797;28;98364;-76
2022/07/27 14:15:33;;;;;;;;;;;;;;;27.50;30.81;99899.22;20719234;28;98792;-74
2022/07/27 14:25:33;;;;;;;;;;;;;;;27.54;31.29;99889.88;20700949;28;101014;-71
2022/07/27 14:35:36;;;;;;;;;;;;;;;27.57;31.08;99885.06;20722506;28;98760;-71
2022/07/27 14:45:37;;;;;;;;;;;;;;;27.62;30.93;99877.41;20734341;28;97988;-71
2022/07/27 14:55:41;;;;;;;;;;;;;;;27.67;30.23;99874.19;20730562;28;97855;-70
2022/07/27 15:05:41;;;;;;;;;;;;;;;27.74;29.92;99879.66;20731752;28;99275;-70
2022/07/27 15:15:41;;;;;;;;;;;;;;;27.77;29.87;99864.19;20738186;28;97210;-70
2022/07/27 15:25:42;;;;;;;;;;;;;;;27.83;30.23;99856.50;20730364;28;98760;-71
2022/07/27 15:35:42;;;;;;;;;;;;;;;27.88;30.25;99852.31;20733789;28;97531;-71
2022/07/27 15:45:44;;;;;;;;;;;;;;;27.87;30.38;99863.97;20730064;28;99066;-70
2022/07/27 15:55:44;;;;;;;;;;;;;;;27.86;31.94;99856.16;20715882;28;99044;-70
2022/07/27 16:05:46;;;;;;;;;;;;;;;27.83;32.28;99861.81;20719229;28;98360;-70
2022/07/27 16:26:05;;;;;;;;;;;;;;;27.81;32.78;99862.00;20694648;28;98736;-76
2022/07/27 16:36:06;;;;;;;;;;;;;;;27.82;33.47;99876.13;20695435;28;98097;-77
2022/07/27 16:46:07;;;;;;;;;;;;;;;27.84;33.48;99879.44;20766062;28;97800;-78
2022/07/27 16:56:08;;;;;;;;;;;;;;;27.86;32.69;99877.44;20899835;28;96362;-80
2022/07/27 17:06:08;;;;;;;;;;;;;;;27.87;31.04;99874.59;20925509;28;95598;-78
2022/07/27 17:16:08;;;;;;;;;;;;;;;27.88;31.39;99886.06;21014349;28;78482;-77
2022/07/27 17:26:09;;;;;;;;;;;;;;;27.88;31.29;99883.41;20925565;28;96138;-78
2022/07/27 17:36:09;;;;;;;;;;;;;;;27.91;32.16;99891.84;21023135;28;64288;-79
2022/07/27 17:46:10;;;;;;;;;;;;;;;27.92;32.80;99916.66;21000818;28;83875;-79
2022/07/27 17:56:10;;;;;;;;;;;;;;;27.87;32.89;99911.84;20954737;28;94607;-77
2022/07/27 18:06:11;;;;;;;;;;;;;;;27.85;33.23;99929.81;20961099;28;96375;-78
2022/07/27 18:16:12;;;;;;;;;;;;;;;27.85;33.53;99937.78;20908335;28;94409;-78
2022/07/27 18:26:13;;;;;;;;;;;;;;;27.83;33.02;99955.78;20902891;28;96976;-76
2022/07/27 18:36:20;;;;;;;;;;;;;;;27.79;33.49;99967.75;20926529;28;95344;-79
2022/07/27 18:46:22;;;;;;;;;;;;;;;27.76;33.58;99973.44;20935376;28;96159;-82
2022/07/27 18:56:25;;;;;;;;;;;;;;;27.73;33.68;99990.53;20909326;28;97828;-78
2022/07/27 19:06:25;;;;;;;;;;;;;;;27.70;33.59;100004.19;20777255;28;96855;-79
2022/07/27 19:16:26;;;;;;;;;;;;;;;27.63;32.68;100022.66;20779458;28;100945;-81
2022/07/27 19:26:26;;;;;;;;;;;;;;;27.57;32.81;100041.97;20755932;28;96825;-81
2022/07/27 19:36:26;;;;;;;;;;;;;;;27.51;32.79;100063.91;20798587;28;97574;-79
2022/07/27 19:46:27;;;;;;;;;;;;;;;27.44;33.25;100078.88;20809731;28;97281;-76
2022/07/27 19:56:27;;;;;;;;;;;;;;;27.38;33.80;100082.19;20792642;28;96354;-80
2022/07/27 20:06:39;;;;;;;;;;;;;;;27.31;35.69;100098.81;20825180;28;96803;-75
2022/07/27 20:16:40;;;;;;;;;;;;;;;27.24;36.64;100108.44;20878237;28;96434;-77
2022/07/27 20:26:41;;;;;;;;;;;;;;;27.16;38.02;100113.78;20866889;28;96188;-79
2022/07/27 20:36:41;;;;;;;;;;;;;;;27.07;38.57;100112.91;20858084;28;96828;-79
2022/07/27 20:46:42;;;;;;;;;;;;;;;26.95;38.72;100114.22;20971814;28;97176;-79
2022/07/27 20:56:42;;;;;;;;;;;;;;;26.89;38.77;100118.38;21006405;28;84331;-79
2022/07/27 21:07:06;;;;;;;;;;;;;;;26.91;38.16;100126.19;21053837;28;62787;-79
2022/07/27 21:17:06;;;;;;;;;;;;;;;26.93;38.00;100129.53;20971730;28;94344;-77
2022/07/27 21:27:07;;;;;;;;;;;;;;;26.89;36.77;100139.63;20993722;28;93576;-78
2022/07/27 21:37:09;;;;;;;;;;;;;;;26.92;36.76;100151.75;20997490;28;94512;-76
2022/07/27 21:47:10;;;;;;;;;;;;;;;26.93;36.26;100162.22;21015421;28;95134;-75
2022/07/27 21:57:12;;;;;;;;;;;;;;;26.87;35.38;100170.84;20961344;28;96702;-75
2022/07/27 22:07:14;;;;;;;;;;;;;;;26.84;35.69;100176.47;20902173;28;96282;-76
2022/07/27 22:17:25;;;;;;;;;;;;;;;26.78;35.51;100190.41;20898160;28;96527;-75
2022/07/27 22:27:25;;;;;;;;;;;;;;;26.78;35.77;100193.91;20776872;28;97973;-81
2022/07/27 22:37:27;;;;;;;;;;;;;;;26.73;35.53;100195.34;20883329;28;96342;-76
2022/07/27 22:47:29;;;;;;;;;;;;;;;26.72;35.44;100193.66;20954580;28;90059;-78
2022/07/27 22:57:29;;;;;;;;;;;;;;;26.71;35.22;100186.69;20884284;28;96238;-78
2022/07/27 23:07:30;;;;;;;;;;;;;;;26.63;35.52;100188.31;20928109;28;96185;-75
2022/07/27 23:17:30;;;;;;;;;;;;;;;26.59;35.59;100199.44;20987016;28;62579;-76
2022/07/27 23:27:34;;;;;;;;;;;;;;;26.63;35.76;100175.03;20935122;28;96305;-77
2022/07/27 23:37:35;;;;;;;;;;;;;;;26.66;35.49;100174.72;21010380;28;92081;-77
2022/07/27 23:47:36;;;;;;;;;;;;;;;26.67;35.57;100184.38;20951879;28;96515;-76
2022/07/27 23:57:38;;;;;;;;;;;;;;;26.60;35.67;100191.31;20939674;28;98014;-77
